Time;durP1;ratioP1;P1;durP2;ratioP2;P2;SDS_P1;SDS_P2;PMS_P1;PMS_P2;Temp;Humidity;BMP_temperature;BMP_pressure;BME280_temperature;BME280_humidity;BME280_pressure;Samples;Min_cycle;Max_cycle;Signal;HPM_P1;HPM_P2
2023/09/06 00:01:12;;;;;;;4.97;4.57;;;;;;;-146.87;100.00;60295.22;4997406;28;20584;-46
2023/09/06 00:03:37;;;;;;;5.63;4.97;;;;;;;-146.87;100.00;60295.22;4996039;28;20266;-46
2023/09/06 00:06:04;;;;;;;5.05;4.40;;;;;;;-146.87;100.00;60295.22;4997820;28;20177;-43
2023/09/06 00:08:34;;;;;;;5.28;4.40;;;;;;;-146.87;100.00;60295.22;5000330;28;20196;-45
2023/09/06 00:11:04;;;;;;;4.80;4.40;;;;;;;-146.87;100.00;60295.22;4998043;28;20205;-45
2023/09/06 00:13:33;;;;;;;5.05;4.20;;;;;;;-146.87;100.00;60295.22;4996873;28;20272;-46
2023/09/06 00:16:03;;;;;;;4.75;4.35;;;;;;;-146.87;100.00;60295.22;5000922;28;20216;-46
2023/09/06 00:18:29;;;;;;;5.03;4.55;;;;;;;-146.87;100.00;60295.22;5007028;28;20192;-46
2023/09/06 00:20:57;;;;;;;4.85;4.45;;;;;;;-146.87;100.00;60295.22;4999140;28;20208;-42
2023/09/06 00:23:24;;;;;;;5.30;4.90;;;;;;;-146.87;100.00;60295.22;5009580;28;20175;-44
2023/09/06 00:25:52;;;;;;;5.50;5.00;;;;;;;-146.87;100.00;60295.22;5010143;28;20184;-51
2023/09/06 00:28:19;;;;;;;6.03;5.43;;;;;;;-146.87;100.00;60295.22;5011275;28;20200;-43
2023/09/06 00:30:46;;;;;;;5.90;5.40;;;;;;;-146.87;100.00;60295.22;5010288;28;20216;-49
2023/09/06 00:33:12;;;;;;;4.78;4.43;;;;;;;-146.87;100.00;60295.22;5011304;28;20211;-44
2023/09/06 00:35:41;;;;;;;6.90;5.30;;;;;;;-146.87;100.00;60295.22;5011163;28;20192;-45
2023/09/06 00:38:06;;;;;;;4.75;4.35;;;;;;;-146.87;100.00;60295.22;5011200;28;20183;-45
2023/09/06 00:40:36;;;;;;;6.68;5.70;;;;;;;-146.87;100.00;60295.22;5009394;28;20212;-49
2023/09/06 00:43:03;;;;;;;5.53;5.05;;;;;;;-146.87;100.00;60295.22;5009483;28;20643;-50
2023/09/06 00:45:38;;;;;;;5.10;4.70;;;;;;;-146.87;100.00;60295.22;5009697;28;20179;-43
2023/09/06 00:48:06;;;;;;;7.72;5.53;;;;;;;-146.87;100.00;60295.22;5010894;28;20192;-48
2023/09/06 00:50:34;;;;;;;5.97;5.43;;;;;;;-146.87;100.00;60295.22;5010638;28;20570;-44
2023/09/06 00:53:01;;;;;;;6.57;5.90;;;;;;;-146.87;100.00;60295.22;5022895;28;20241;-48
2023/09/06 00:55:26;;;;;;;6.78;6.18;;;;;;;-146.87;100.00;60295.22;5010729;28;20169;-47
2023/09/06 00:57:52;;;;;;;7.03;6.45;;;;;;;-146.87;100.00;60295.22;5010584;28;20689;-45
2023/09/06 01:00:20;;;;;;;9.30;8.27;;;;;;;-146.87;100.00;60295.22;5009515;28;20290;-45
2023/09/06 01:02:47;;;;;;;7.68;7.00;;;;;;;-146.87;100.00;60295.22;5009726;28;20239;-46
2023/09/06 01:05:16;;;;;;;7.35;6.75;;;;;;;-146.87;100.00;60295.22;5010581;28;20307;-45
2023/09/06 01:07:49;;;;;;;8.63;7.82;;;;;;;-146.87;100.00;60295.22;5002391;28;20191;-48
2023/09/06 01:10:15;;;;;;;8.38;7.68;;;;;;;-146.87;100.00;60295.22;5010489;28;20205;-44
2023/09/06 01:12:40;;;;;;;7.03;6.40;;;;;;;-146.87;100.00;60295.22;5010417;28;20295;-46
2023/09/06 01:15:06;;;;;;;9.88;8.57;;;;;;;-146.87;100.00;60295.22;5010459;28;20184;-46
2023/09/06 01:17:36;;;;;;;9.35;8.45;;;;;;;-146.87;100.00;60295.22;5009213;28;20189;-48
2023/09/06 01:20:29;;;;;;;8.15;7.45;;;;;;;-146.87;100.00;60295.22;4992648;28;20214;-48
2023/09/06 01:23:21;;;;;;;8.70;7.95;;;;;;;-146.87;100.00;60295.22;5002403;28;20272;-45
2023/09/06 01:25:54;;;;;;;10.80;9.70;;;;;;;14.36;100.00;102061.81;5086544;27;20550;-42
2023/09/06 01:28:20;;;;;;;11.43;10.35;;;;;;;14.23;100.00;102071.25;5090225;28;20311;-42
2023/09/06 01:30:47;;;;;;;8.68;7.82;;;;;;;14.32;100.00;102067.38;5086220;28;20197;-52
2023/09/06 01:33:16;;;;;;;10.15;9.25;;;;;;;14.30;100.00;102071.91;5084964;28;20174;-51
2023/09/06 01:35:41;;;;;;;10.65;9.75;;;;;;;14.27;100.00;102072.91;5084517;28;20182;-44
2023/09/06 01:38:07;;;;;;;12.25;11.15;;;;;;;14.19;100.00;102069.59;5083660;28;20671;-47
2023/09/06 01:40:32;;;;;;;14.40;13.10;;;;;;;14.20;100.00;102065.97;5058286;28;20259;-45
2023/09/06 01:42:58;;;;;;;11.63;10.52;;;;;;;14.20;100.00;102057.88;5085817;28;20190;-46
2023/09/06 01:45:24;;;;;;;10.35;9.45;;;;;;;14.22;100.00;102066.81;5081186;28;20570;-45
2023/09/06 01:47:49;;;;;;;10.23;9.23;;;;;;;14.27;100.00;102063.94;5084503;28;20235;-50
2023/09/06 01:50:19;;;;;;;14.48;13.07;;;;;;;14.04;100.00;102060.22;5084855;28;20206;-43
2023/09/06 01:52:48;;;;;;;13.57;12.27;;;;;;;13.97;100.00;102064.94;5086097;28;20227;-43
2023/09/06 01:55:13;;;;;;;15.55;14.05;;;;;;;13.92;100.00;102061.47;5085663;28;20655;-45
2023/09/06 01:57:39;;;;;;;16.38;14.73;;;;;;;13.99;100.00;102076.53;5084534;28;20175;-44
2023/09/06 02:00:19;;;;;;;19.10;17.27;;;;;;;13.99;100.00;102057.69;5073512;28;20195;-50
2023/09/06 02:02:45;;;;;;;17.63;15.88;;;;;;;14.00;100.00;102055.84;5077569;28;20328;-42
2023/09/06 02:05:11;;;;;;;12.52;11.40;;;;;;;14.08;100.00;102053.81;5085344;28;20209;-49
2023/09/06 02:07:36;;;;;;;19.67;17.77;;;;;;;13.89;100.00;102064.28;5082125;28;20178;-44
2023/09/06 02:10:03;;;;;;;17.77;16.08;;;;;;;13.95;100.00;102074.88;5091075;28;20291;-45
2023/09/06 02:12:29;;;;;;;21.48;19.35;;;;;;;13.93;100.00;102059.69;5096687;28;20178;-43
2023/09/06 02:14:56;;;;;;;20.33;18.38;;;;;;;13.80;100.00;102060.09;5067961;28;20224;-42
2023/09/06 02:17:25;;;;;;;22.42;20.23;;;;;;;13.88;100.00;102061.63;5080951;28;20170;-45
2023/09/06 02:19:51;;;;;;;23.13;20.83;;;;;;;13.89;100.00;102061.59;5096740;28;20210;-41
2023/09/06 02:22:18;;;;;;;20.27;18.33;;;;;;;13.86;100.00;102069.75;5089571;28;20170;-46
2023/09/06 02:24:44;;;;;;;24.13;21.77;;;;;;;13.84;100.00;102068.97;5101862;28;20206;-44
2023/09/06 02:27:12;;;;;;;20.92;18.83;;;;;;;13.91;100.00;102069.63;5085457;28;20204;-44
2023/09/06 02:29:39;;;;;;;20.38;18.38;;;;;;;13.94;100.00;102067.72;5102127;28;20169;-44
2023/09/06 02:32:05;;;;;;;23.52;20.88;;;;;;;13.81;100.00;102074.44;5083838;28;20170;-44
2023/09/06 02:34:30;;;;;;;17.65;15.95;;;;;;;13.90;100.00;102071.44;5083870;28;20178;-43
2023/09/06 02:36:56;;;;;;;22.45;20.25;;;;;;;13.87;100.00;102066.16;5072453;28;20277;-43
2023/09/06 02:39:25;;;;;;;21.38;19.15;;;;;;;13.91;100.00;102067.81;5071081;28;20190;-43
2023/09/06 02:41:51;;;;;;;18.02;16.23;;;;;;;13.93;100.00;102074.03;5071488;28;20174;-47
2023/09/06 02:44:17;;;;;;;19.48;17.63;;;;;;;13.93;100.00;102073.16;5085843;28;20281;-44
2023/09/06 02:46:43;;;;;;;25.02;22.60;;;;;;;13.84;100.00;102068.06;5091842;28;20663;-44
2023/09/06 02:49:12;;;;;;;20.45;18.45;;;;;;;13.84;100.00;102077.03;5081554;28;20196;-43
2023/09/06 02:51:42;;;;;;;17.27;15.57;;;;;;;13.86;100.00;102082.34;5081917;28;20285;-51
2023/09/06 02:54:10;;;;;;;19.42;17.52;;;;;;;13.89;100.00;102085.84;5091418;28;20257;-43
2023/09/06 02:56:40;;;;;;;15.27;13.77;;;;;;;13.91;100.00;102081.28;5088226;28;20189;-41
2023/09/06 02:59:12;;;;;;;16.40;14.70;;;;;;;13.95;100.00;102079.34;5079544;28;20201;-46
2023/09/06 03:01:44;;;;;;;18.90;17.10;;;;;;;13.93;100.00;102092.03;5078186;28;20213;-44
2023/09/06 03:04:13;;;;;;;18.15;16.45;;;;;;;13.96;100.00;102084.72;5084541;28;20566;-51
2023/09/06 03:06:41;;;;;;;18.55;16.73;;;;;;;13.93;100.00;102092.91;5079544;28;20272;-42
2023/09/06 03:09:07;;;;;;;18.95;14.23;;;;;;;13.94;100.00;102083.00;5069376;28;20170;-44
2023/09/06 03:11:33;;;;;;;22.65;20.35;;;;;;;13.89;100.00;102083.16;5078989;28;20757;-44
2023/09/06 03:13:59;;;;;;;18.77;16.88;;;;;;;13.89;100.00;102083.16;5076743;28;20250;-43
2023/09/06 03:16:26;;;;;;;16.48;14.90;;;;;;;13.90;100.00;102074.13;5086383;28;20251;-42
2023/09/06 03:18:54;;;;;;;18.52;16.45;;;;;;;13.90;100.00;102086.72;5089808;28;20276;-44
2023/09/06 03:21:20;;;;;;;24.60;21.98;;;;;;;13.84;100.00;102076.13;5089571;28;20205;-45
2023/09/06 03:23:46;;;;;;;27.05;24.25;;;;;;;13.75;100.00;102082.69;5071091;28;20178;-44
2023/09/06 03:26:12;;;;;;;21.55;19.40;;;;;;;13.70;100.00;102073.88;5075561;28;20182;-42
2023/09/06 03:28:40;;;;;;;26.00;23.40;;;;;;;13.67;100.00;102082.94;5080038;28;20174;-51
2023/09/06 03:31:13;;;;;;;25.05;22.63;;;;;;;13.62;100.00;102084.00;5081103;28;20194;-44
2023/09/06 03:33:39;;;;;;;27.90;24.98;;;;;;;13.57;100.00;102086.84;5072363;28;20254;-42
2023/09/06 03:36:09;;;;;;;27.52;24.73;;;;;;;13.42;100.00;102076.53;5082856;28;20201;-41
2023/09/06 03:38:36;;;;;;;29.52;25.20;;;;;;;13.35;100.00;102079.41;5078707;28;20175;-41
2023/09/06 03:41:03;;;;;;;30.67;27.38;;;;;;;13.27;100.00;102081.44;5073871;28;20190;-47
2023/09/06 03:43:30;;;;;;;30.30;27.05;;;;;;;13.31;100.00;102082.25;5073820;28;20174;-45
2023/09/06 03:45:58;;;;;;;35.15;31.35;;;;;;;13.39;100.00;102078.41;5074118;28;20174;-42
2023/09/06 03:48:27;;;;;;;31.42;28.02;;;;;;;13.46;100.00;102084.47;5089461;28;20182;-43
2023/09/06 03:50:57;;;;;;;31.90;27.83;;;;;;;13.36;100.00;102085.69;5085744;28;20198;-52
2023/09/06 03:53:27;;;;;;;23.70;21.23;;;;;;;13.47;100.00;102086.25;5073135;28;20267;-46
2023/09/06 03:55:57;;;;;;;21.48;19.27;;;;;;;13.52;100.00;102081.59;5058137;28;20195;-49
2023/09/06 03:58:25;;;;;;;24.83;22.30;;;;;;;13.55;100.00;102084.19;5084822;28;20162;-49
2023/09/06 04:00:52;;;;;;;21.35;19.15;;;;;;;13.60;100.00;102090.34;5068563;28;20207;-43
2023/09/06 04:03:26;;;;;;;23.35;20.92;;;;;;;13.58;100.00;102094.88;5076669;28;20170;-47
2023/09/06 04:05:52;;;;;;;28.75;25.75;;;;;;;13.54;100.00;102100.41;5068803;28;20202;-49
2023/09/06 04:08:18;;;;;;;32.63;27.10;;;;;;;13.47;100.00;102096.13;5075043;28;20681;-43
2023/09/06 04:10:49;;;;;;;24.90;22.30;;;;;;;13.42;100.00;102104.34;5088483;28;20671;-43
2023/09/06 04:13:14;;;;;;;22.50;20.02;;;;;;;13.46;100.00;102103.31;5089930;28;20204;-46
2023/09/06 04:15:42;;;;;;;20.92;18.80;;;;;;;13.49;100.00;102096.97;5085442;28;20165;-45
2023/09/06 04:18:12;;;;;;;31.80;28.40;;;;;;;13.45;100.00;102092.63;5076332;28;20182;-49
2023/09/06 04:20:44;;;;;;;25.15;22.30;;;;;;;13.50;100.00;102104.13;5082415;28;20186;-51
2023/09/06 04:23:13;;;;;;;24.92;22.27;;;;;;;13.52;100.00;102103.16;5076495;28;20174;-44
2023/09/06 04:25:47;;;;;;;23.17;20.77;;;;;;;13.54;100.00;102101.28;5076604;28;20195;-43
2023/09/06 04:28:20;;;;;;;23.67;21.02;;;;;;;13.55;100.00;102105.72;5081358;28;20754;-43
2023/09/06 04:30:47;;;;;;;24.65;22.15;;;;;;;13.55;100.00;102104.84;5069145;28;20226;-43
2023/09/06 04:33:14;;;;;;;28.38;24.85;;;;;;;13.50;100.00;102096.91;5082080;28;20520;-45
2023/09/06 04:35:48;;;;;;;29.77;26.17;;;;;;;13.28;100.00;102096.69;5085369;28;20259;-44
2023/09/06 04:38:18;;;;;;;26.80;24.00;;;;;;;13.33;100.00;102091.16;5076287;28;20185;-43
2023/09/06 04:40:47;;;;;;;32.03;28.65;;;;;;;13.26;100.00;102106.56;5085765;28;20308;-45
2023/09/06 04:43:19;;;;;;;25.23;22.75;;;;;;;13.31;100.00;102101.09;5067389;28;20171;-44
2023/09/06 04:45:47;;;;;;;26.67;23.88;;;;;;;13.32;100.00;102101.06;5067625;28;20212;-52
2023/09/06 04:48:16;;;;;;;25.75;22.98;;;;;;;13.33;100.00;102102.81;5067567;28;20171;-45
2023/09/06 04:50:46;;;;;;;28.02;25.13;;;;;;;13.26;100.00;102111.09;5077529;28;20209;-51
2023/09/06 04:53:15;;;;;;;24.20;21.70;;;;;;;13.36;100.00;102112.63;5073828;28;20179;-48
2023/09/06 04:55:41;;;;;;;22.73;20.42;;;;;;;13.38;100.00;102113.44;5067428;28;20377;-49
2023/09/06 04:58:09;;;;;;;28.20;25.20;;;;;;;13.31;100.00;102120.81;5080450;28;20174;-43
2023/09/06 05:00:38;;;;;;;28.20;25.20;;;;;;;13.38;100.00;102121.50;5079020;28;20188;-43
2023/09/06 05:03:08;;;;;;;28.90;24.95;;;;;;;13.43;100.00;102124.97;5072910;28;20186;-46
2023/09/06 05:05:35;;;;;;;22.75;20.45;;;;;;;13.46;100.00;102114.09;5055347;28;20186;-45
2023/09/06 05:08:03;;;;;;;25.15;22.50;;;;;;;13.50;100.00;102125.66;5059355;28;20175;-51
2023/09/06 05:10:29;;;;;;;28.25;25.25;;;;;;;13.49;100.00;102127.47;5068214;28;20194;-44
2023/09/06 05:12:54;;;;;;;27.25;24.45;;;;;;;13.51;100.00;102130.09;5076373;28;20174;-46
2023/09/06 05:15:21;;;;;;;33.50;30.10;;;;;;;13.60;100.00;102127.16;5081925;28;20170;-44
2023/09/06 05:17:46;;;;;;;37.75;33.65;;;;;;;13.92;100.00;102120.75;5085725;28;20273;-42
2023/09/06 05:20:32;;;;;;;28.92;25.63;;;;;;;14.42;100.00;102123.63;5066798;28;20885;-41
2023/09/06 05:23:03;;;;;;;32.22;28.35;;;;;;;14.49;100.00;102121.59;5068104;28;20743;-42
2023/09/06 05:25:29;;;;;;;32.10;28.67;;;;;;;14.49;100.00;102116.19;5068337;28;20222;-44
2023/09/06 05:27:57;;;;;;;24.08;21.52;;;;;;;14.60;100.00;102121.28;5085271;28;20197;-41
2023/09/06 05:30:28;;;;;;;22.65;20.33;;;;;;;14.87;100.00;102124.84;5068283;28;20289;-45
2023/09/06 05:32:55;;;;;;;30.35;27.25;;;;;;;15.11;100.00;102125.78;5069084;28;20210;-44
2023/09/06 05:35:23;;;;;;;24.67;22.25;;;;;;;15.50;100.00;102118.91;5067637;28;20170;-48
2023/09/06 05:37:49;;;;;;;28.17;25.38;;;;;;;15.72;100.00;102114.50;5067598;28;20277;-46
2023/09/06 05:40:15;;;;;;;26.05;23.45;;;;;;;15.76;100.00;102124.22;5060019;28;20199;-48
2023/09/06 05:42:41;;;;;;;27.20;24.00;;;;;;;15.98;100.00;102126.97;5073186;28;20174;-47
2023/09/06 05:45:13;;;;;;;26.17;23.60;;;;;;;16.23;100.00;102117.88;5061707;28;20192;-50
2023/09/06 05:47:39;;;;;;;27.40;24.67;;;;;;;16.31;100.00;102114.81;5058793;28;20179;-41
2023/09/06 05:50:07;;;;;;;28.73;25.80;;;;;;;16.47;100.00;102124.06;5060549;28;20193;-41
2023/09/06 05:52:33;;;;;;;25.42;22.92;;;;;;;16.77;100.00;102112.84;5060128;28;20338;-41
2023/09/06 05:54:58;;;;;;;27.10;24.45;;;;;;;16.94;100.00;102117.56;5057926;28;20182;-42
2023/09/06 05:57:24;;;;;;;26.70;24.10;;;;;;;17.18;100.00;102123.72;5062169;28;20593;-41
2023/09/06 05:59:51;;;;;;;26.52;23.92;;;;;;;17.35;100.00;102118.41;5050501;28;20224;-42
2023/09/06 06:02:17;;;;;;;23.65;21.17;;;;;;;17.74;100.00;102116.63;5041232;28;20179;-41
2023/09/06 06:04:46;;;;;;;27.50;24.80;;;;;;;17.95;100.00;102121.03;5056579;28;20637;-41
2023/09/06 06:07:13;;;;;;;25.10;22.63;;;;;;;18.10;100.00;102109.44;5060900;28;20225;-42
2023/09/06 06:09:38;;;;;;;23.77;21.55;;;;;;;18.35;100.00;102105.50;5060758;28;20789;-42
2023/09/06 06:12:04;;;;;;;22.50;20.30;;;;;;;18.51;100.00;102106.47;5056536;28;20185;-43
2023/09/06 06:14:30;;;;;;;24.65;22.35;;;;;;;18.83;100.00;102114.81;5059066;28;20191;-42
2023/09/06 06:16:57;;;;;;;22.85;20.30;;;;;;;19.00;100.00;102107.59;5060582;28;20205;-42
2023/09/06 06:19:23;;;;;;;23.45;21.15;;;;;;;19.18;100.00;102112.06;5064309;28;20198;-41
2023/09/06 06:21:49;;;;;;;24.38;21.98;;;;;;;19.39;100.00;102107.28;5064684;28;20217;-41
2023/09/06 06:24:15;;;;;;;25.20;22.80;;;;;;;19.73;100.00;102116.31;5066617;28;20570;-40
2023/09/06 06:26:41;;;;;;;36.05;32.20;;;;;;;20.03;100.00;102113.69;5060481;28;20191;-39
2023/09/06 06:29:06;;;;;;;30.48;27.55;;;;;;;20.24;100.00;102110.69;5060163;28;20331;-41
2023/09/06 06:31:32;;;;;;;30.98;27.98;;;;;;;20.50;100.00;102120.03;5057208;28;20203;-41
2023/09/06 06:33:59;;;;;;;30.80;27.92;;;;;;;20.64;100.00;102127.41;5066538;28;20269;-41
2023/09/06 06:36:25;;;;;;;35.20;31.80;;;;;;;20.46;100.00;102119.31;5061052;28;20523;-40
2023/09/06 06:38:51;;;;;;;35.63;32.17;;;;;;;20.46;100.00;102130.22;5059441;28;20187;-40
2023/09/06 06:41:20;;;;;;;29.98;27.13;;;;;;;20.72;100.00;102128.69;5060974;28;20201;-41
2023/09/06 06:43:47;;;;;;;31.48;28.15;;;;;;;20.92;100.00;102127.47;5061398;28;20280;-41
2023/09/06 06:46:28;;;;;;;31.35;28.35;;;;;;;21.15;100.00;102125.19;5062481;28;20266;-40
2023/09/06 06:48:54;;;;;;;32.00;27.48;;;;;;;21.07;100.00;102130.25;5061082;28;20529;-41
2023/09/06 06:51:21;;;;;;;29.10;26.20;;;;;;;21.23;100.00;102117.44;5059643;28;20268;-41
2023/09/06 06:53:46;;;;;;;23.98;21.70;;;;;;;21.34;100.00;102125.81;5062010;28;20178;-41
2023/09/06 06:56:12;;;;;;;24.98;22.33;;;;;;;21.40;100.00;102124.53;5057414;28;20257;-41
2023/09/06 06:58:37;;;;;;;23.15;20.98;;;;;;;21.35;100.00;102124.81;5063106;28;20197;-42
2023/09/06 07:01:03;;;;;;;25.88;23.38;;;;;;;20.98;100.00;102123.50;5056647;28;20237;-41
2023/09/06 07:03:31;;;;;;;24.88;22.48;;;;;;;21.11;100.00;102131.81;5057255;28;20580;-41
2023/09/06 07:05:57;;;;;;;24.98;22.73;;;;;;;20.98;100.00;102124.38;5060867;28;20247;-40
2023/09/06 07:08:26;;;;;;;22.77;20.50;;;;;;;21.17;100.00;102125.97;5062171;28;20282;-41
2023/09/06 07:10:52;;;;;;;20.40;18.15;;;;;;;21.38;100.00;102130.09;5057239;28;20563;-39
2023/09/06 07:13:17;;;;;;;20.48;18.58;;;;;;;21.41;99.13;102129.06;5056896;28;20239;-41
2023/09/06 07:15:43;;;;;;;16.98;15.43;;;;;;;21.61;98.88;102122.31;5057612;28;20219;-41
2023/09/06 07:18:09;;;;;;;15.73;14.32;;;;;;;21.66;96.91;102124.75;5067159;28;20201;-42
2023/09/06 07:20:35;;;;;;;14.20;12.88;;;;;;;21.64;95.27;102126.69;5054801;28;20267;-41
2023/09/06 07:23:01;;;;;;;12.90;11.68;;;;;;;21.80;93.83;102122.88;5061602;28;21019;-39
2023/09/06 07:25:27;;;;;;;10.63;9.63;;;;;;;21.92;93.01;102126.66;5053752;28;20226;-41
2023/09/06 07:27:53;;;;;;;11.63;9.90;;;;;;;22.11;90.83;102120.00;5061416;28;20179;-43
2023/09/06 07:30:19;;;;;;;10.77;9.18;;;;;;;22.17;89.05;102115.00;5064835;28;20204;-41
2023/09/06 07:32:44;;;;;;;9.65;8.75;;;;;;;22.42;87.38;102114.25;5057233;28;20763;-40
2023/09/06 07:35:10;;;;;;;8.45;7.70;;;;;;;22.68;86.07;102111.59;5056787;28;20186;-41
2023/09/06 07:37:35;;;;;;;9.45;8.55;;;;;;;22.31;83.63;102108.63;5060197;28;20182;-42
2023/09/06 07:40:01;;;;;;;9.20;8.25;;;;;;;22.53;82.33;102101.72;5055720;28;20210;-42
2023/09/06 07:42:27;;;;;;;7.88;7.07;;;;;;;22.79;81.84;102102.66;5059193;28;20678;-41
2023/09/06 07:44:52;;;;;;;7.07;6.13;;;;;;;23.02;80.23;102104.69;5060749;28;20199;-43
2023/09/06 07:47:18;;;;;;;7.10;6.38;;;;;;;22.42;79.89;102100.59;5066074;28;20190;-42
2023/09/06 07:49:43;;;;;;;6.72;6.13;;;;;;;22.79;78.99;102092.59;5061101;28;20292;-41
2023/09/06 07:52:08;;;;;;;8.88;6.60;;;;;;;23.04;78.17;102096.34;5055464;28;20170;-41
2023/09/06 07:54:34;;;;;;;5.80;5.30;;;;;;;23.35;77.06;102095.03;5060703;28;20603;-40
2023/09/06 07:57:00;;;;;;;5.75;5.25;;;;;;;23.24;76.31;102095.81;5055932;28;20178;-41
2023/09/06 07:59:27;;;;;;;6.40;5.80;;;;;;;23.37;75.53;102103.97;5054656;28;20175;-40
2023/09/06 08:01:53;;;;;;;5.40;4.63;;;;;;;23.80;75.01;102092.69;5060595;28;20190;-41
2023/09/06 08:04:19;;;;;;;4.40;4.00;;;;;;;23.94;74.80;102099.88;5057378;28;20251;-41
2023/09/06 08:06:47;;;;;;;3.80;3.50;;;;;;;24.12;73.59;102097.63;5057121;28;20207;-41
2023/09/06 08:09:13;;;;;;;4.03;3.30;;;;;;;24.06;71.68;102081.66;5053186;28;20255;-41
2023/09/06 08:11:39;;;;;;;3.63;3.28;;;;;;;23.75;71.37;102089.41;5060278;28;20201;-41
2023/09/06 08:14:04;;;;;;;3.70;3.15;;;;;;;23.99;72.87;102096.78;5059158;28;20285;-43
2023/09/06 08:16:31;;;;;;;3.30;3.10;;;;;;;24.19;70.84;102095.28;5055552;28;20206;-42
2023/09/06 08:18:56;;;;;;;3.67;3.22;;;;;;;24.25;70.91;102095.69;5058311;28;20288;-42
2023/09/06 08:21:22;;;;;;;3.40;3.03;;;;;;;24.28;69.74;102091.84;5058296;28;20389;-41
2023/09/06 08:23:48;;;;;;;3.30;3.00;;;;;;;24.62;68.05;102075.56;5058936;28;20607;-42
2023/09/06 08:26:16;;;;;;;4.35;3.88;;;;;;;24.41;67.21;102065.25;5062334;28;20189;-42
2023/09/06 08:28:42;;;;;;;5.15;2.65;;;;;;;24.19;68.25;102076.13;5052542;28;20201;-38
2023/09/06 08:31:07;;;;;;;2.88;2.67;;;;;;;24.79;67.60;102076.97;5059607;28;20657;-40
2023/09/06 08:33:33;;;;;;;2.85;2.60;;;;;;;24.51;66.37;102073.69;5061760;28;20213;-40
2023/09/06 08:35:58;;;;;;;3.20;2.70;;;;;;;24.73;67.91;102085.69;5057748;28;20177;-38
2023/09/06 08:38:24;;;;;;;2.50;2.33;;;;;;;25.13;67.46;102090.75;5060629;28;20184;-37
2023/09/06 08:40:50;;;;;;;4.20;2.20;;;;;;;25.38;66.71;102076.81;5065482;28;20202;-41
2023/09/06 08:43:18;;;;;;;2.75;2.30;;;;;;;25.50;65.66;102077.72;5058491;28;20189;-39
2023/09/06 08:45:47;;;;;;;3.95;2.83;;;;;;;25.51;64.29;102064.84;5053551;28;20216;-42
2023/09/06 08:48:14;;;;;;;2.70;2.40;;;;;;;25.29;64.61;102058.38;5059007;28;20987;-42
2023/09/06 08:50:40;;;;;;;3.47;2.53;;;;;;;25.43;64.38;102060.88;5056761;28;20199;-40
2023/09/06 08:53:10;;;;;;;5.68;2.42;;;;;;;25.43;64.28;102071.84;5061067;28;20252;-42
2023/09/06 08:55:35;;;;;;;3.40;2.38;;;;;;;25.60;64.76;102075.06;5061255;28;20174;-43
2023/09/06 08:58:03;;;;;;;3.25;2.53;;;;;;;25.41;64.09;102072.97;5060268;28;20314;-43
2023/09/06 09:00:30;;;;;;;5.95;2.67;;;;;;;25.21;64.88;102071.81;5058598;28;20672;-42
2023/09/06 09:02:57;;;;;;;3.92;2.72;;;;;;;25.23;65.02;102073.47;5055166;28;20638;-41
2023/09/06 09:05:22;;;;;;;4.15;2.83;;;;;;;25.38;64.00;102074.06;5054444;28;20179;-41
2023/09/06 09:07:56;;;;;;;4.07;3.08;;;;;;;25.36;64.19;102065.09;5054402;28;20198;-41
2023/09/06 09:10:25;;;;;;;3.35;2.78;;;;;;;25.66;65.35;102085.56;5053637;28;20634;-42
2023/09/06 09:12:51;;;;;;;6.00;3.08;;;;;;;25.20;65.53;102098.41;5060183;28;20224;-40
2023/09/06 09:15:19;;;;;;;3.70;2.65;;;;;;;25.78;65.43;102084.53;5060950;28;20228;-41
2023/09/06 09:17:45;;;;;;;4.63;3.10;;;;;;;25.53;64.64;102084.81;5058533;28;20192;-39
2023/09/06 09:20:14;;;;;;;4.72;2.80;;;;;;;25.68;64.04;102086.28;5054417;28;20870;-41
2023/09/06 09:22:40;;;;;;;6.63;2.70;;;;;;;25.64;64.48;102082.91;5053065;28;20206;-40
2023/09/06 09:25:14;;;;;;;3.40;2.72;;;;;;;25.89;64.73;102094.66;5048546;28;20280;-46
2023/09/06 09:27:42;;;;;;;3.28;2.50;;;;;;;26.00;62.76;102074.53;5055558;28;20166;-44
2023/09/06 09:30:10;;;;;;;3.03;2.75;;;;;;;25.66;63.11;102074.56;5056154;28;20311;-43
2023/09/06 09:32:35;;;;;;;3.67;3.15;;;;;;;25.50;63.53;102069.47;5055044;28;20653;-45
2023/09/06 09:35:02;;;;;;;2.78;2.55;;;;;;;25.40;64.16;102079.44;5056594;28;20182;-46
2023/09/06 09:37:30;;;;;;;6.93;3.13;;;;;;;25.58;63.75;102064.25;5052461;28;20177;-44
2023/09/06 09:39:58;;;;;;;5.93;2.88;;;;;;;25.28;64.23;102073.97;5055659;28;20292;-44
2023/09/06 09:42:23;;;;;;;2.97;2.67;;;;;;;25.58;64.31;102086.19;5054375;28;20181;-46
2023/09/06 09:45:02;;;;;;;3.03;2.72;;;;;;;25.66;63.70;102069.09;5054225;28;20194;-46
2023/09/06 09:47:31;;;;;;;3.85;2.45;;;;;;;25.81;64.35;102070.53;5061012;28;20625;-47
2023/09/06 09:50:00;;;;;;;5.25;3.22;;;;;;;25.70;64.11;102078.81;5055658;28;20195;-48
2023/09/06 09:52:30;;;;;;;3.83;2.75;;;;;;;25.86;63.38;102062.78;5065000;28;20682;-47
2023/09/06 09:54:55;;;;;;;3.97;2.30;;;;;;;25.79;63.34;102052.47;5059118;28;20177;-47
2023/09/06 09:57:23;;;;;;;4.82;2.85;;;;;;;25.80;63.52;102063.31;5065368;28;20200;-46
2023/09/06 09:59:51;;;;;;;6.97;2.90;;;;;;;26.09;63.48;102062.78;5060559;28;21237;-46
2023/09/06 10:02:20;;;;;;;3.42;2.90;;;;;;;25.95;62.76;102049.31;5059107;28;21425;-46
2023/09/06 10:04:47;;;;;;;5.82;2.55;;;;;;;25.76;64.24;102063.69;5058466;28;20288;-47
2023/09/06 10:07:14;;;;;;;4.15;2.70;;;;;;;25.99;63.75;102057.19;5060669;28;20175;-44
2023/09/06 10:09:42;;;;;;;6.20;2.90;;;;;;;25.89;62.97;102048.84;5057166;28;20683;-46
2023/09/06 10:12:10;;;;;;;6.05;2.58;;;;;;;26.02;62.98;102051.44;5055476;28;20543;-47
2023/09/06 10:14:39;;;;;;;3.25;2.95;;;;;;;25.67;64.35;102062.56;5054956;28;20253;-45
2023/09/06 10:17:06;;;;;;;4.15;2.38;;;;;;;26.02;64.91;102067.03;5058171;28;20282;-44
2023/09/06 10:19:31;;;;;;;3.47;2.10;;;;;;;26.44;64.03;102062.50;5056662;28;20178;-47
2023/09/06 10:22:00;;;;;;;2.72;2.50;;;;;;;26.34;63.66;102056.03;5063954;28;20186;-47
2023/09/06 10:24:32;;;;;;;2.88;2.50;;;;;;;26.44;63.36;102053.41;5060395;28;20222;-46
2023/09/06 10:26:58;;;;;;;3.10;2.50;;;;;;;26.35;63.60;102048.66;5056954;28;20321;-45
2023/09/06 10:29:24;;;;;;;3.95;2.88;;;;;;;26.25;64.50;102065.09;5058146;28;20256;-46
2023/09/06 10:31:52;;;;;;;4.18;2.65;;;;;;;25.84;65.12;102070.28;5060204;28;20224;-46
2023/09/06 10:34:18;;;;;;;3.65;2.90;;;;;;;26.63;63.92;102060.94;5059991;28;20179;-48
2023/09/06 10:36:51;;;;;;;4.78;2.85;;;;;;;26.71;62.86;102053.75;5059718;28;20193;-47
2023/09/06 10:39:21;;;;;;;5.63;3.15;;;;;;;26.67;62.81;102052.28;5056651;28;20218;-45
2023/09/06 10:42:08;;;;;;;4.60;2.67;;;;;;;26.65;62.95;102048.78;5055777;28;20199;-45
2023/09/06 10:44:56;;;;;;;3.17;2.88;;;;;;;26.76;62.72;102052.47;5068123;28;21615;-46
2023/09/06 10:47:30;;;;;;;6.65;3.53;;;;;;;26.73;62.73;102058.25;5055863;28;20207;-46
2023/09/06 10:50:18;;;;;;;4.45;2.65;;;;;;;26.44;62.58;102051.50;5055579;28;20229;-46
2023/09/06 10:52:58;;;;;;;4.55;2.65;;;;;;;26.68;63.06;102058.66;5057607;28;20170;-47
2023/09/06 10:55:26;;;;;;;2.53;2.33;;;;;;;26.87;63.60;102069.81;5054791;28;20297;-45
2023/09/06 10:57:58;;;;;;;5.03;2.90;;;;;;;27.26;62.12;102060.91;5055698;28;20543;-46
2023/09/06 11:00:26;;;;;;;3.03;2.83;;;;;;;26.76;62.69;102049.72;5053844;28;20206;-46
2023/09/06 11:03:07;;;;;;;2.90;2.70;;;;;;;26.92;62.43;102044.63;5062288;28;20179;-45
2023/09/06 11:05:35;;;;;;;3.20;2.88;;;;;;;26.70;63.10;102060.28;5054284;28;20203;-46
2023/09/06 11:08:05;;;;;;;4.63;2.60;;;;;;;27.02;62.43;102050.19;5060011;28;20295;-44
2023/09/06 11:10:31;;;;;;;4.07;3.42;;;;;;;26.75;62.44;102046.13;5056234;28;20265;-47
2023/09/06 11:12:57;;;;;;;6.13;3.28;;;;;;;26.63;62.25;102045.34;5059104;28;20278;-47
2023/09/06 11:15:24;;;;;;;3.63;2.55;;;;;;;26.59;62.43;102038.34;5055000;28;20663;-48